Time;durP1;ratioP1;P1;durP2;ratioP2;P2;SDS_P1;SDS_P2;PMS_P1;PMS_P2;Temp;Humidity;BMP_temperature;BMP_pressure;BME280_temperature;BME280_humidity;BME280_pressure;Samples;Min_cycle;Max_cycle;Signal;HPM_P1;HPM_P2
2021/04/12 00:02:22;;;;;;;4.30;3.43;;;1.00;99.90;;;;;;5069716;28;20200;-62
2021/04/12 00:04:54;;;;;;;5.03;3.33;;;1.00;99.90;;;;;;5066296;28;20210;-61
2021/04/12 00:07:29;;;;;;;6.10;3.93;;;1.00;99.90;;;;;;5067876;28;20188;-61
2021/04/12 00:10:04;;;;;;;5.80;3.77;;;1.00;99.90;;;;;;5063110;28;20215;-62
2021/04/12 00:12:37;;;;;;;9.07;4.33;;;1.00;99.90;;;;;;5067334;28;20199;-62
2021/04/12 00:15:11;;;;;;;5.70;3.60;;;1.00;99.90;;;;;;5067177;28;20188;-62
2021/04/12 00:17:42;;;;;;;4.03;3.50;;;1.00;99.90;;;;;;5064705;28;20225;-62
2021/04/12 00:20:20;;;;;;;7.33;3.80;;;0.90;99.90;;;;;;5063357;28;20247;-62
2021/04/12 00:22:52;;;;;;;5.47;3.90;;;0.80;99.90;;;;;;5061944;28;20212;-62
2021/04/12 00:25:26;;;;;;;4.07;3.60;;;0.80;99.90;;;;;;5076936;28;20200;-62
2021/04/12 00:27:58;;;;;;;7.47;3.63;;;0.70;99.90;;;;;;5066667;28;20191;-62
2021/04/12 00:30:32;;;;;;;4.50;3.50;;;0.60;99.90;;;;;;5064541;28;20212;-62
2021/04/12 00:33:05;;;;;;;3.90;3.57;;;0.50;99.90;;;;;;5065177;28;20208;-62
2021/04/12 00:35:35;;;;;;;4.23;3.90;;;0.60;99.90;;;;;;5057428;28;20195;-62
2021/04/12 00:38:11;;;;;;;5.73;4.20;;;0.60;99.90;;;;;;5073333;28;20244;-61
2021/04/12 00:40:45;;;;;;;10.50;4.23;;;0.60;99.90;;;;;;5065299;28;20249;-62
2021/04/12 00:43:25;;;;;;;8.87;4.17;;;0.60;99.90;;;;;;5062012;28;20257;-62
2021/04/12 00:46:36;;;;;;;4.20;3.83;;;0.70;99.90;;;;;;5062317;28;20231;-61
2021/04/12 00:49:22;;;;;;;4.70;4.30;;;0.70;99.90;;;;;;4992700;28;20230;-61
2021/04/12 00:51:59;;;;;;;4.53;4.13;;;0.70;99.90;;;;;;5007536;28;20201;-62
2021/04/12 00:54:52;;;;;;;4.33;3.70;;;0.70;99.90;;;;;;5044111;28;20230;-62
2021/04/12 00:57:41;;;;;;;5.13;3.90;;;0.70;99.90;;;;;;5067841;28;20192;-62
2021/04/12 01:00:14;;;;;;;6.03;4.37;;;0.70;99.90;;;;;;5063202;28;20242;-62
2021/04/12 01:03:02;;;;;;;7.23;3.87;;;0.70;99.90;;;;;;5066735;28;20191;-61
2021/04/12 01:05:42;;;;;;;10.63;3.90;;;0.60;99.90;;;;;;5069543;28;20247;-61
2021/04/12 01:08:41;;;;;;;6.27;3.70;;;0.60;99.90;;;;;;5065216;28;20231;-62
2021/04/12 01:11:48;;;;;;;4.53;3.73;;;0.70;99.90;;;;;;5053664;28;20246;-62
2021/04/12 01:14:48;;;;;;;5.70;3.70;;;0.70;99.90;;;;;;5066803;28;20257;-62
2021/04/12 01:17:36;;;;;;;7.23;3.60;;;0.70;99.90;;;;;;5069631;28;20255;-62
2021/04/12 01:20:49;;;;;;;6.37;3.80;;;0.70;99.90;;;;;;5071045;28;20204;-62
2021/04/12 01:23:49;;;;;;;4.97;3.87;;;0.70;99.90;;;;;;5065285;28;20211;-61
2021/04/12 01:26:53;;;;;;;9.17;4.20;;;0.70;99.90;;;;;;5065899;28;20200;-61
2021/04/12 01:30:12;;;;;;;5.37;4.00;;;0.70;99.90;;;;;;5064909;28;20212;-62
2021/04/12 01:33:28;;;;;;;7.90;3.57;;;0.70;99.90;;;;;;5066970;28;20192;-62
2021/04/12 01:36:33;;;;;;;7.90;3.80;;;0.70;99.90;;;;;;5062495;28;20203;-62
2021/04/12 01:39:11;;;;;;;7.23;4.00;;;0.70;99.90;;;;;;5070761;28;20248;-62
2021/04/12 01:41:53;;;;;;;4.73;4.03;;;0.70;99.90;;;;;;5050107;28;20590;-61
2021/04/12 01:44:30;;;;;;;6.87;4.10;;;0.70;99.90;;;;;;5062959;28;20242;-62
2021/04/12 01:47:04;;;;;;;7.27;4.20;;;0.60;99.90;;;;;;5068201;28;20215;-62
2021/04/12 01:49:53;;;;;;;12.23;4.40;;;0.60;99.90;;;;;;5068558;28;20360;-62
2021/04/12 01:52:37;;;;;;;6.60;4.70;;;0.60;99.90;;;;;;5070786;28;20253;-62
2021/04/12 01:55:28;;;;;;;4.27;3.97;;;0.50;99.90;;;;;;5069383;28;20211;-62
2021/04/12 01:58:21;;;;;;;4.50;4.10;;;0.50;99.90;;;;;;5070506;28;20191;-61
2021/04/12 02:00:58;;;;;;;4.63;4.23;;;0.60;99.90;;;;;;5070983;28;20215;-62
2021/04/12 02:03:37;;;;;;;5.47;4.03;;;0.60;99.90;;;;;;5068649;28;20227;-62
2021/04/12 02:06:38;;;;;;;4.43;4.07;;;0.60;99.90;;;;;;5072627;28;20667;-62
2021/04/12 02:09:42;;;;;;;5.47;4.13;;;0.60;99.90;;;;;;5059478;28;20239;-62
2021/04/12 02:12:23;;;;;;;4.67;3.80;;;0.60;99.90;;;;;;5069827;28;20187;-62
2021/04/12 02:15:02;;;;;;;5.30;4.03;;;0.60;99.90;;;;;;5068613;28;20231;-62
2021/04/12 02:17:44;;;;;;;5.90;4.60;;;0.60;99.90;;;;;;5069251;28;20235;-62
2021/04/12 02:20:17;;;;;;;6.37;4.10;;;0.50;99.90;;;;;;5074253;28;20210;-62
2021/04/12 02:23:10;;;;;;;6.70;3.93;;;0.60;99.90;;;;;;5068817;28;20287;-62
2021/04/12 02:25:53;;;;;;;11.07;5.13;;;0.60;99.90;;;;;;5065119;28;20290;-62
2021/04/12 02:28:37;;;;;;;5.20;4.50;;;0.70;99.90;;;;;;5065640;28;20195;-62
2021/04/12 02:31:21;;;;;;;5.53;4.30;;;0.80;99.90;;;;;;5068999;28;20247;-62
2021/04/12 02:33:59;;;;;;;5.60;4.30;;;0.90;99.90;;;;;;5068501;28;20249;-62
2021/04/12 02:36:43;;;;;;;4.57;4.17;;;1.00;99.90;;;;;;5066435;28;20223;-62
2021/04/12 02:39:21;;;;;;;7.37;4.23;;;1.00;99.90;;;;;;5070005;28;20271;-62
2021/04/12 02:42:07;;;;;;;6.87;5.00;;;1.00;99.90;;;;;;5065897;28;20540;-62
2021/04/12 02:44:48;;;;;;;7.23;4.37;;;1.00;99.90;;;;;;5067132;28;20242;-62
2021/04/12 02:47:38;;;;;;;6.13;4.33;;;1.00;99.90;;;;;;5069477;28;20212;-62
2021/04/12 02:50:20;;;;;;;5.53;4.30;;;1.00;99.90;;;;;;5068256;28;20323;-62
2021/04/12 02:53:01;;;;;;;9.27;4.37;;;1.00;99.90;;;;;;5072321;28;20262;-62
2021/04/12 02:56:06;;;;;;;6.40;4.40;;;1.00;99.90;;;;;;5060149;28;20200;-62
2021/04/12 02:59:04;;;;;;;4.73;4.30;;;0.90;99.90;;;;;;5067297;28;20233;-62
2021/04/12 03:02:00;;;;;;;6.67;4.23;;;0.80;99.90;;;;;;5063168;28;20586;-62
2021/04/12 03:04:44;;;;;;;8.00;4.37;;;0.80;99.90;;;;;;5067561;28;20566;-62
2021/04/12 03:07:41;;;;;;;9.53;4.93;;;0.80;99.90;;;;;;5073392;28;20188;-62
2021/04/12 03:10:41;;;;;;;8.63;4.50;;;0.90;99.90;;;;;;5058484;28;20243;-61
2021/04/12 03:13:53;;;;;;;4.30;3.90;;;0.90;99.90;;;;;;5064908;28;20269;-62
2021/04/12 03:16:39;;;;;;;12.40;4.70;;;0.80;99.90;;;;;;5022771;28;20283;-62
2021/04/12 03:19:26;;;;;;;7.90;4.60;;;0.70;99.90;;;;;;5067420;28;20192;-62
2021/04/12 03:22:26;;;;;;;5.50;4.57;;;0.60;99.90;;;;;;5064574;28;20199;-62
2021/04/12 03:25:27;;;;;;;9.73;5.93;;;0.60;99.90;;;;;;5065046;28;20742;-62
2021/04/12 03:28:18;;;;;;;8.97;4.70;;;0.50;99.90;;;;;;5062876;28;20195;-62
2021/04/12 03:31:18;;;;;;;8.03;5.40;;;0.50;99.90;;;;;;5066131;28;20301;-61
2021/04/12 03:33:59;;;;;;;6.43;5.00;;;0.40;99.90;;;;;;5069631;28;20242;-62
2021/04/12 03:36:34;;;;;;;7.63;4.80;;;0.40;99.90;;;;;;5065902;28;20227;-61
2021/04/12 03:39:06;;;;;;;7.37;5.27;;;0.40;99.90;;;;;;5066267;28;20199;-62
2021/04/12 03:42:10;;;;;;;10.27;5.37;;;0.40;99.90;;;;;;5066385;28;20589;-62
2021/04/12 03:45:06;;;;;;;6.50;5.03;;;0.40;99.90;;;;;;5068751;28;20188;-62
2021/04/12 03:48:16;;;;;;;9.33;5.80;;;0.40;99.90;;;;;;5066128;28;20265;-62
2021/04/12 03:51:20;;;;;;;8.80;6.10;;;0.30;99.90;;;;;;5062983;28;20392;-61
2021/04/12 03:54:18;;;;;;;10.40;5.60;;;0.30;99.90;;;;;;5062584;28;20211;-61
2021/04/12 03:57:02;;;;;;;8.40;5.33;;;0.20;99.90;;;;;;5061249;28;20287;-62
2021/04/12 03:59:45;;;;;;;7.97;6.33;;;0.20;99.90;;;;;;5067816;28;20203;-62
2021/04/12 04:02:39;;;;;;;8.17;5.97;;;0.20;99.90;;;;;;5072055;28;20659;-62
2021/04/12 04:05:20;;;;;;;9.93;6.67;;;0.10;99.90;;;;;;5058375;28;20188;-62
2021/04/12 04:08:25;;;;;;;8.40;5.80;;;0.10;99.90;;;;;;5064234;28;20195;-62
2021/04/12 04:11:16;;;;;;;6.70;5.87;;;0.00;99.90;;;;;;5066515;28;20705;-62
2021/04/12 04:14:07;;;;;;;11.20;5.83;;;0.00;99.90;;;;;;5066573;28;20576;-62
2021/04/12 04:16:48;;;;;;;6.30;5.37;;;0.00;99.90;;;;;;5063922;28;20235;-62
2021/04/12 04:19:30;;;;;;;8.00;5.90;;;-0.10;99.90;;;;;;5064386;28;20249;-62
2021/04/12 04:22:14;;;;;;;10.43;5.63;;;0.00;99.90;;;;;;5065588;28;20188;-62
2021/04/12 04:25:09;;;;;;;9.53;6.30;;;-0.10;99.90;;;;;;5063506;28;20196;-62
2021/04/12 04:28:18;;;;;;;9.10;5.80;;;-0.10;99.90;;;;;;5061334;28;20635;-62
2021/04/12 04:31:30;;;;;;;12.77;6.10;;;-0.10;99.90;;;;;;5063180;28;20277;-62
2021/04/12 04:34:09;;;;;;;9.00;6.23;;;-0.10;99.90;;;;;;5063000;28;20548;-62
2021/04/12 04:36:47;;;;;;;10.07;6.30;;;-0.10;99.90;;;;;;5064012;28;20281;-62
2021/04/12 04:39:38;;;;;;;10.07;6.83;;;-0.10;99.90;;;;;;5066509;28;20227;-62
2021/04/12 04:42:30;;;;;;;8.27;5.60;;;-0.10;99.90;;;;;;5063371;28;20335;-61
2021/04/12 04:45:12;;;;;;;11.87;5.63;;;-0.10;99.90;;;;;;5069670;28;20187;-60
2021/04/12 04:47:58;;;;;;;7.73;6.50;;;0.00;99.90;;;;;;5062581;28;20241;-61
2021/04/12 04:50:51;;;;;;;11.57;6.00;;;0.00;99.90;;;;;;5063589;28;20647;-62
2021/04/12 04:53:40;;;;;;;8.87;5.70;;;0.00;99.90;;;;;;5068097;28;20308;-62
2021/04/12 04:56:21;;;;;;;6.37;5.67;;;0.00;99.90;;;;;;5065961;28;20202;-62
2021/04/12 04:59:22;;;;;;;5.83;5.23;;;0.00;99.90;;;;;;5058946;28;20648;-62
2021/04/12 05:02:22;;;;;;;6.70;5.00;;;-0.10;99.90;;;;;;5062062;28;20200;-60
2021/04/12 05:05:23;;;;;;;6.63;5.13;;;-0.10;99.90;;;;;;5058168;28;20188;-62
2021/04/12 05:08:31;;;;;;;10.00;5.40;;;0.00;99.90;;;;;;5065898;28;20655;-62
2021/04/12 05:11:28;;;;;;;7.60;4.93;;;0.00;99.90;;;;;;5063573;28;20625;-62
2021/04/12 05:14:38;;;;;;;6.33;4.73;;;0.00;99.90;;;;;;5072405;28;20287;-61
2021/04/12 05:17:31;;;;;;;16.27;9.83;;;0.00;99.90;;;;;;5064119;28;20280;-61
2021/04/12 05:20:12;;;;;;;15.83;9.83;;;-0.10;99.90;;;;;;5059069;28;20674;-62
2021/04/12 05:23:03;;;;;;;17.13;11.23;;;-0.10;99.90;;;;;;5060607;28;20196;-62
2021/04/12 05:26:06;;;;;;;11.80;5.70;;;0.00;99.90;;;;;;5066742;28;20199;-61
2021/04/12 05:28:59;;;;;;;6.07;4.70;;;0.10;99.90;;;;;;5056018;28;21277;-62
2021/04/12 05:31:54;;;;;;;7.87;4.03;;;0.10;99.90;;;;;;5072417;28;20647;-62
2021/04/12 05:34:48;;;;;;;6.07;4.10;;;0.10;99.90;;;;;;5059223;28;20576;-62
2021/04/12 05:37:35;;;;;;;5.50;4.00;;;0.20;99.90;;;;;;5064915;28;20744;-62
2021/04/12 05:40:24;;;;;;;4.47;4.07;;;0.20;99.90;;;;;;5060867;28;20203;-61
2021/04/12 05:43:32;;;;;;;4.87;4.10;;;0.30;99.90;;;;;;5059387;28;20655;-62
2021/04/12 05:46:45;;;;;;;8.87;4.30;;;0.40;99.90;;;;;;4982507;28;20721;-62
2021/04/12 05:49:52;;;;;;;6.43;4.43;;;0.60;99.90;;;;;;4977156;28;20268;-62
2021/04/12 05:52:30;;;;;;;7.00;4.97;;;1.00;99.90;;;;;;5057104;28;20200;-62
2021/04/12 05:55:34;;;;;;;10.43;5.30;;;1.60;99.90;;;;;;5063191;28;20195;-62
2021/04/12 05:58:29;;;;;;;7.93;4.10;;;2.10;99.90;;;;;;5070265;28;20713;-62
2021/04/12 06:01:42;;;;;;;4.23;3.53;;;2.80;99.90;;;;;;5059970;28;20197;-63
2021/04/12 06:04:19;;;;;;;3.50;3.20;;;3.40;99.90;;;;;;5000629;28;20198;-62
2021/04/12 06:07:43;;;;;;;3.50;3.03;;;3.80;99.90;;;;;;5067520;28;20209;-63
2021/04/12 06:10:34;;;;;;;3.60;3.10;;;4.20;99.90;;;;;;5049274;28;20646;-60
2021/04/12 06:13:24;;;;;;;3.07;2.73;;;4.60;99.90;;;;;;5068432;28;20653;-63
2021/04/12 06:16:17;;;;;;;6.67;3.40;;;4.80;99.90;;;;;;5068627;28;20231;-63
2021/04/12 06:19:19;;;;;;;3.60;3.20;;;4.70;99.90;;;;;;5063050;28;20282;-63
2021/04/12 06:21:59;;;;;;;8.47;3.87;;;4.90;99.90;;;;;;5057512;28;20339;-62
2021/04/12 06:24:54;;;;;;;5.37;3.53;;;5.10;99.90;;;;;;5066350;28;20200;-62
2021/04/12 06:27:50;;;;;;;5.87;4.13;;;5.40;99.90;;;;;;5028210;28;20596;-62
2021/04/12 06:30:44;;;;;;;6.87;4.13;;;5.60;99.90;;;;;;5080299;28;20216;-62
2021/04/12 06:33:32;;;;;;;4.97;4.37;;;5.70;99.90;;;;;;5058555;28;20228;-62
2021/04/12 06:36:26;;;;;;;4.83;4.10;;;5.60;99.90;;;;;;5066746;28;20195;-62
2021/04/12 06:39:37;;;;;;;8.53;4.20;;;5.40;99.90;;;;;;5066625;28;20192;-62
2021/04/12 06:42:49;;;;;;;7.03;4.67;;;5.40;99.90;;;;;;4996287;28;20214;-62
2021/04/12 06:45:54;;;;;;;5.33;4.27;;;5.60;99.90;;;;;;5090752;28;20646;-63
2021/04/12 06:48:55;;;;;;;4.53;4.13;;;6.00;99.90;;;;;;5066286;28;20189;-63
2021/04/12 06:51:53;;;;;;;3.60;3.30;;;6.50;99.90;;;;;;5082455;28;20229;-62
2021/04/12 06:54:43;;;;;;;3.57;3.27;;;7.00;99.90;;;;;;5061976;28;20215;-63
2021/04/12 06:58:02;;;;;;;9.40;4.10;;;7.50;99.90;;;;;;5068307;28;20189;-62
2021/04/12 07:01:14;;;;;;;2.37;2.17;;;7.80;99.90;;;;;;5062940;28;20265;-63
2021/04/12 07:04:19;;;;;;;3.07;2.77;;;7.50;99.90;;;;;;5070731;28;20714;-63
2021/04/12 07:07:30;;;;;;;2.50;2.40;;;7.00;99.90;;;;;;5055752;28;20262;-62
2021/04/12 07:10:18;;;;;;;4.70;2.80;;;6.60;99.90;;;;;;5057664;28;20234;-63
2021/04/12 07:13:05;;;;;;;4.53;3.37;;;6.20;99.90;;;;;;5061622;28;20241;-63
2021/04/12 07:15:56;;;;;;;2.50;2.40;;;6.00;99.90;;;;;;5069782;28;20199;-62
2021/04/12 07:19:11;;;;;;;2.20;2.10;;;5.70;99.90;;;;;;5069489;28;20199;-62
2021/04/12 07:22:13;;;;;;;2.07;2.07;;;5.90;99.90;;;;;;5069974;28;20200;-63
2021/04/12 07:25:26;;;;;;;4.47;2.77;;;6.90;99.90;;;;;;5061379;28;20192;-63
2021/04/12 07:28:20;;;;;;;2.63;2.53;;;8.10;99.90;;;;;;5064217;28;20192;-63
2021/04/12 07:31:17;;;;;;;3.13;2.90;;;9.40;99.90;;;;;;5063046;28;20210;-63
2021/04/12 07:34:22;;;;;;;3.20;3.00;;;10.30;99.90;;;;;;5068949;28;20663;-64
2021/04/12 07:37:31;;;;;;;2.50;2.40;;;10.80;99.90;;;;;;5053532;28;20192;-61
2021/04/12 07:40:41;;;;;;;2.43;2.00;;;11.30;99.90;;;;;;5067696;28;20697;-61
2021/04/12 07:43:49;;;;;;;6.23;4.10;;;11.60;99.90;;;;;;5069680;28;20639;-62
2021/04/12 07:47:11;;;;;;;1.57;1.57;;;11.90;99.90;;;;;;5069524;28;20681;-59
2021/04/12 07:50:11;;;;;;;2.43;1.63;;;12.20;99.90;;;;;;5068559;28;20191;-61
2021/04/12 07:53:30;;;;;;;2.73;2.10;;;11.90;99.90;;;;;;5079589;28;20553;-61
2021/04/12 07:56:39;;;;;;;2.00;1.80;;;12.10;99.90;;;;;;5069352;28;20196;-62
2021/04/12 07:59:55;;;;;;;1.87;1.77;;;12.40;99.90;;;;;;5063847;28;20200;-62
2021/04/12 08:03:01;;;;;;;1.73;1.60;;;12.90;99.90;;;;;;5069406;28;20588;-62
2021/04/12 08:06:07;;;;;;;3.13;1.70;;;13.30;99.90;;;;;;5068235;28;20281;-62
2021/04/12 08:09:07;;;;;;;1.50;1.50;;;13.60;99.90;;;;;;5076266;28;20237;-62
2021/04/12 08:12:09;;;;;;;1.50;1.40;;;14.00;99.90;;;;;;5087463;28;20890;-63
2021/04/12 08:15:24;;;;;;;1.50;1.40;;;14.40;99.90;;;;;;5048739;28;20204;-62
2021/04/12 08:18:23;;;;;;;1.63;1.20;;;15.00;99.90;;;;;;5069437;28;20192;-62
2021/04/12 08:21:30;;;;;;;2.73;1.70;;;15.30;99.90;;;;;;5038604;28;20211;-62
2021/04/12 08:24:39;;;;;;;1.77;1.40;;;15.30;99.90;;;;;;5069013;28;20187;-64
2021/04/12 08:27:58;;;;;;;1.87;1.70;;;15.40;99.90;;;;;;5072134;28;20287;-62
2021/04/12 08:31:08;;;;;;;3.23;2.00;;;15.60;99.90;;;;;;5043316;28;20285;-62
2021/04/12 08:34:13;;;;;;;4.20;1.57;;;15.90;99.90;;;;;;5066900;28;20192;-62
2021/04/12 08:37:05;;;;;;;1.97;1.70;;;15.70;99.90;;;;;;5068908;28;20200;-63
2021/04/12 08:40:09;;;;;;;3.10;1.90;;;16.10;99.40;;;;;;5069008;28;20204;-62
2021/04/12 08:43:06;;;;;;;2.03;1.80;;;16.20;99.30;;;;;;5060295;28;20286;-63
2021/04/12 08:46:18;;;;;;;4.23;2.00;;;16.40;98.70;;;;;;5058051;28;20711;-63
2021/04/12 08:49:21;;;;;;;5.90;2.20;;;16.70;98.20;;;;;;5043468;28;20208;-62
2021/04/12 08:52:32;;;;;;;3.00;2.53;;;16.80;99.00;;;;;;5055351;28;20207;-62
2021/04/12 08:55:37;;;;;;;3.07;2.00;;;16.40;98.00;;;;;;5066928;28;20192;-62
2021/04/12 08:58:38;;;;;;;4.13;2.10;;;16.30;98.10;;;;;;5068804;28;20654;-63
2021/04/12 09:01:35;;;;;;;3.13;1.90;;;17.00;98.10;;;;;;5068992;28;20191;-63
2021/04/12 09:04:38;;;;;;;2.40;2.30;;;16.60;96.90;;;;;;5064089;28;20649;-62
2021/04/12 09:07:28;;;;;;;4.83;2.10;;;15.40;98.50;;;;;;5067617;28;20191;-62
2021/04/12 09:10:20;;;;;;;3.37;2.50;;;14.30;99.50;;;;;;5065600;28;20196;-62
2021/04/12 09:13:04;;;;;;;3.90;2.20;;;14.10;99.80;;;;;;5063961;28;20335;-62
2021/04/12 09:16:12;;;;;;;2.83;2.47;;;14.20;98.30;;;;;;5088668;28;20697;-62
2021/04/12 09:19:28;;;;;;;2.57;2.10;;;14.40;99.90;;;;;;5072653;28;20200;-62
2021/04/12 09:22:34;;;;;;;2.60;2.40;;;14.00;99.40;;;;;;5008923;28;20275;-65
2021/04/12 09:25:39;;;;;;;3.30;3.00;;;13.00;99.10;;;;;;5070894;28;20207;-64
2021/04/12 09:28:28;;;;;;;2.80;2.60;;;12.30;99.90;;;;;;5071646;28;20184;-64
2021/04/12 09:31:41;;;;;;;2.73;2.53;;;12.50;99.90;;;;;;5071715;28;20331;-64
2021/04/12 09:34:43;;;;;;;3.10;2.67;;;12.30;99.90;;;;;;5059043;28;20291;-64
2021/04/12 09:37:50;;;;;;;3.03;2.77;;;11.30;99.90;;;;;;5065483;28;20265;-64
2021/04/12 09:40:39;;;;;;;6.70;3.20;;;10.40;99.90;;;;;;5068560;28;20188;-61
2021/04/12 09:43:36;;;;;;;4.73;3.37;;;9.80;99.90;;;;;;5067914;28;20253;-63
2021/04/12 09:46:37;;;;;;;3.80;3.50;;;9.40;99.90;;;;;;5086354;28;20192;-63
2021/04/12 09:49:59;;;;;;;3.73;3.43;;;9.00;99.90;;;;;;5076301;28;20274;-63
2021/04/12 09:52:41;;;;;;;9.00;4.87;;;8.00;99.90;;;;;;5073048;28;20210;-63
2021/04/12 09:56:07;;;;;;;3.80;3.60;;;7.60;99.90;;;;;;5061247;28;20188;-63
2021/04/12 09:59:05;;;;;;;5.00;4.57;;;7.10;99.90;;;;;;5006135;28;20202;-62
2021/04/12 10:02:03;;;;;;;4.50;4.20;;;6.90;99.90;;;;;;5065984;28;20246;-62
2021/04/12 10:04:58;;;;;;;4.00;3.70;;;6.60;99.90;;;;;;5070571;28;20290;-62
2021/04/12 10:07:52;;;;;;;4.10;3.80;;;6.20;99.90;;;;;;5049484;28;20261;-62
2021/04/12 10:10:23;;;;;;;4.23;3.90;;;6.30;99.90;;;;;;5064919;28;20208;-62
2021/04/12 10:13:16;;;;;;;5.40;4.00;;;6.30;99.90;;;;;;5070369;28;20196;-62
2021/04/12 10:15:57;;;;;;;3.80;3.50;;;6.50;99.90;;;;;;5085401;28;20281;-62
2021/04/12 10:18:36;;;;;;;3.93;3.63;;;6.90;99.90;;;;;;5069471;28;20196;-62
2021/04/12 10:21:17;;;;;;;4.00;3.63;;;6.80;99.90;;;;;;5064678;28;20197;-62
2021/04/12 10:23:50;;;;;;;3.93;3.60;;;6.50;99.90;;;;;;5062557;28;20248;-62
2021/04/12 10:26:23;;;;;;;4.10;3.67;;;6.10;99.90;;;;;;5061769;28;20294;-62
2021/04/12 10:28:57;;;;;;;4.30;3.90;;;6.10;99.90;;;;;;5067443;28;20724;-62
2021/04/12 10:31:31;;;;;;;3.97;3.67;;;6.10;99.90;;;;;;5062884;28;20226;-62
2021/04/12 10:34:19;;;;;;;4.10;3.70;;;6.20;99.90;;;;;;5063534;28;20279;-63
2021/04/12 10:37:04;;;;;;;5.63;4.10;;;6.40;99.90;;;;;;5078603;28;20250;-62
2021/04/12 10:39:38;;;;;;;5.10;4.70;;;6.00;99.90;;;;;;5061084;28;20273;-62
2021/04/12 10:42:25;;;;;;;5.40;4.90;;;5.80;99.90;;;;;;5062096;28;20192;-62
2021/04/12 10:45:02;;;;;;;5.53;4.90;;;5.70;99.90;;;;;;5063305;28;20184;-62
2021/04/12 10:47:44;;;;;;;6.40;4.63;;;5.70;99.90;;;;;;5057841;28;20241;-62
2021/04/12 10:50:20;;;;;;;5.50;5.00;;;5.70;99.90;;;;;;5060885;28;20671;-62
2021/04/12 10:53:14;;;;;;;9.60;5.70;;;5.70;99.90;;;;;;5074400;28;20192;-62
2021/04/12 10:55:46;;;;;;;6.33;4.90;;;5.70;99.90;;;;;;5045093;28;20210;-62
2021/04/12 10:58:24;;;;;;;6.30;5.30;;;5.70;99.90;;;;;;5062940;28;20192;-62
2021/04/12 11:01:03;;;;;;;8.67;5.90;;;5.90;99.90;;;;;;5062319;28;20639;-62
2021/04/12 11:03:45;;;;;;;12.40;6.13;;;6.70;99.90;;;;;;5059596;28;20219;-63
2021/04/12 11:06:28;;;;;;;5.77;5.23;;;7.90;99.90;;;;;;5064590;28;20228;-63
2021/04/12 11:09:10;;;;;;;6.43;5.30;;;9.50;99.90;;;;;;5067785;28;20592;-62
2021/04/12 11:11:45;;;;;;;6.13;5.43;;;10.60;99.90;;;;;;5054759;28;20315;-63
2021/04/12 11:14:21;;;;;;;5.53;5.03;;;11.00;99.90;;;;;;5067178;28;20183;-63
2021/04/12 11:16:52;;;;;;;5.40;4.90;;;11.00;99.90;;;;;;5063416;28;20231;-63
2021/04/12 11:19:24;;;;;;;5.47;5.00;;;11.50;99.90;;;;;;5050385;28;20196;-63
2021/04/12 11:22:15;;;;;;;6.07;5.30;;;11.90;99.90;;;;;;5056773;28;20185;-63
2021/04/12 11:24:54;;;;;;;6.67;5.53;;;12.30;99.90;;;;;;5062432;28;20197;-63
2021/04/12 11:27:57;;;;;;;5.53;4.80;;;13.00;99.90;;;;;;5060047;28;20196;-63
2021/04/12 11:30:29;;;;;;;5.20;4.40;;;12.50;99.90;;;;;;5052518;28;20215;-64
2021/04/12 11:33:30;;;;;;;5.17;4.77;;;13.30;99.90;;;;;;5058975;28;20339;-61
2021/04/12 11:36:10;;;;;;;5.23;4.83;;;13.50;99.90;;;;;;5061520;28;20261;-63
2021/04/12 11:38:43;;;;;;;5.57;4.23;;;12.80;99.90;;;;;;5065126;28;20654;-64
2021/04/12 11:41:15;;;;;;;5.80;5.03;;;12.30;99.90;;;;;;5063259;28;20192;-63
2021/04/12 11:43:49;;;;;;;5.17;4.83;;;11.50;99.90;;;;;;5054583;28;20262;-63
2021/04/12 11:46:26;;;;;;;5.33;4.77;;;10.60;99.90;;;;;;5059490;28;20189;-63
2021/04/12 11:49:01;;;;;;;5.50;5.10;;;10.30;99.90;;;;;;5053880;28;20226;-64
2021/04/12 11:51:42;;;;;;;5.50;5.00;;;10.00;99.90;;;;;;5056131;28;20236;-63
2021/04/12 11:54:13;;;;;;;8.63;5.47;;;9.90;99.90;;;;;;5059638;28;20761;-63
2021/04/12 11:56:49;;;;;;;5.47;5.03;;;9.70;99.90;;;;;;5068904;28;20219;-62
2021/04/12 11:59:35;;;;;;;6.23;5.60;;;9.40;99.90;;;;;;5057283;28;20188;-63
2021/04/12 12:02:12;;;;;;;6.90;4.97;;;9.20;99.90;;;;;;5065071;28;20279;-63
2021/04/12 12:04:44;;;;;;;5.50;5.00;;;9.10;99.90;;;;;;5063310;28;20283;-63
2021/04/12 12:07:32;;;;;;;5.57;5.07;;;9.00;99.90;;;;;;5060093;28;20189;-62
2021/04/12 12:10:13;;;;;;;5.60;5.10;;;8.90;99.90;;;;;;5055911;28;20196;-63
2021/04/12 12:12:53;;;;;;;7.77;5.40;;;8.80;99.90;;;;;;5062312;28;20620;-63
2021/04/12 12:15:27;;;;;;;9.50;5.90;;;8.60;99.90;;;;;;5058137;28;20773;-62
2021/04/12 12:18:03;;;;;;;7.20;5.90;;;8.30;99.90;;;;;;5065218;28;20203;-62
2021/04/12 12:20:48;;;;;;;7.30;5.80;;;8.20;99.90;;;;;;5062631;28;20202;-62
2021/04/12 12:23:47;;;;;;;6.37;5.40;;;8.20;99.90;;;;;;5056173;28;20512;-62
2021/04/12 12:26:24;;;;;;;5.87;5.27;;;8.50;99.90;;;;;;5054097;28;20193;-62
2021/04/12 12:29:05;;;;;;;8.53;5.53;;;8.90;99.90;;;;;;5051003;28;20238;-62
2021/04/12 12:31:37;;;;;;;8.07;5.70;;;9.50;99.90;;;;;;5060752;28;20839;-62
2021/04/12 12:34:14;;;;;;;6.33;5.80;;;9.90;99.90;;;;;;5057245;28;20192;-63
2021/04/12 12:36:51;;;;;;;7.77;6.17;;;10.10;99.90;;;;;;5057520;28;20717;-63
2021/04/12 12:39:32;;;;;;;6.43;5.83;;;9.80;99.90;;;;;;5066310;28;20829;-62
2021/04/12 12:42:03;;;;;;;6.83;6.10;;;9.50;99.90;;;;;;5046968;28;20543;-63
2021/04/12 12:44:31;;;;;;;7.57;6.10;;;9.30;99.90;;;;;;5064412;28;20198;-62
2021/04/12 12:47:07;;;;;;;6.73;5.97;;;9.10;99.90;;;;;;5063337;28;20526;-62
2021/04/12 12:49:38;;;;;;;6.27;5.77;;;9.00;99.90;;;;;;5067215;28;20731;-62
2021/04/12 12:52:10;;;;;;;5.80;5.30;;;9.00;99.90;;;;;;5064609;28;20210;-62
2021/04/12 12:54:44;;;;;;;6.07;4.70;;;9.10;99.90;;;;;;5058761;28;20196;-62
2021/04/12 12:57:20;;;;;;;8.77;5.17;;;9.20;99.90;;;;;;5063213;28;20195;-62
2021/04/12 12:59:52;;;;;;;4.50;4.17;;;9.50;99.90;;;;;;5056514;28;20195;-63
2021/04/12 13:02:32;;;;;;;5.63;5.00;;;9.70;99.90;;;;;;5058823;28;20217;-62
2021/04/12 13:05:08;;;;;;;4.67;4.37;;;10.30;99.90;;;;;;5054943;28;20545;-62
2021/04/12 13:07:36;;;;;;;6.67;4.50;;;11.10;99.90;;;;;;5062211;28;20214;-63
2021/04/12 13:10:10;;;;;;;5.07;4.40;;;11.70;99.90;;;;;;5053120;28;20678;-63
2021/04/12 13:12:39;;;;;;;5.40;4.90;;;11.70;99.90;;;;;;5069373;28;20314;-63
2021/04/12 13:15:27;;;;;;;7.13;4.90;;;11.30;99.90;;;;;;5060558;28;20207;-63
2021/04/12 13:18:06;;;;;;;5.50;5.00;;;11.10;99.90;;;;;;5054813;28;20228;-63
2021/04/12 13:20:37;;;;;;;8.30;4.87;;;11.60;99.90;;;;;;5058219;28;20188;-63
2021/04/12 13:23:09;;;;;;;6.67;5.00;;;11.90;99.90;;;;;;5059528;28;20196;-62
2021/04/12 13:25:40;;;;;;;5.30;4.87;;;11.70;99.90;;;;;;5061714;28;20226;-63
2021/04/12 13:28:15;;;;;;;5.53;5.03;;;11.40;99.90;;;;;;5052919;28;20204;-62
2021/04/12 13:30:49;;;;;;;6.27;4.80;;;11.40;99.90;;;;;;5062849;28;20225;-62
2021/04/12 13:33:27;;;;;;;4.70;4.40;;;11.60;99.90;;;;;;5063998;28;20651;-62
2021/04/12 13:36:00;;;;;;;4.43;4.10;;;12.00;99.90;;;;;;5059846;28;20188;-62
2021/04/12 13:38:31;;;;;;;4.13;3.87;;;12.10;99.90;;;;;;5065170;28;20259;-62
2021/04/12 13:41:07;;;;;;;5.13;4.47;;;12.10;99.90;;;;;;5064543;28;20314;-62
2021/04/12 13:43:38;;;;;;;4.73;4.33;;;12.40;99.90;;;;;;5062112;28;20204;-61
2021/04/12 13:46:15;;;;;;;4.30;3.90;;;12.50;99.90;;;;;;5066048;28;20191;-63
2021/04/12 13:48:49;;;;;;;5.43;4.77;;;12.80;99.90;;;;;;5065303;28;20196;-63
2021/04/12 13:51:28;;;;;;;5.70;4.40;;;12.80;99.90;;;;;;5060277;28;20707;-61
2021/04/12 13:54:00;;;;;;;4.43;4.13;;;12.50;99.90;;;;;;5062914;28;20204;-63
2021/04/12 13:56:38;;;;;;;4.30;4.00;;;12.20;99.90;;;;;;5067728;28;20196;-63
2021/04/12 13:59:15;;;;;;;6.07;4.40;;;12.00;99.90;;;;;;5062108;28;20192;-62
2021/04/12 14:01:45;;;;;;;4.37;4.07;;;12.00;99.90;;;;;;5068237;28;20223;-63
2021/04/12 14:04:15;;;;;;;4.40;4.00;;;11.80;99.90;;;;;;5067783;28;20717;-63
2021/04/12 14:06:52;;;;;;;4.30;3.80;;;11.60;99.90;;;;;;5067874;28;20223;-63
2021/04/12 14:09:28;;;;;;;4.30;3.90;;;11.60;99.90;;;;;;5065530;28;20266;-62
2021/04/12 14:12:01;;;;;;;3.70;3.50;;;11.50;99.90;;;;;;5065364;28;20212;-63
2021/04/12 14:14:33;;;;;;;3.90;3.60;;;11.40;99.90;;;;;;5055431;28;20598;-63
2021/04/12 14:17:08;;;;;;;4.10;3.80;;;11.30;99.90;;;;;;5060288;28;20837;-62
2021/04/12 14:19:41;;;;;;;3.90;3.70;;;11.20;99.90;;;;;;5055494;28;20203;-62
2021/04/12 14:22:18;;;;;;;3.93;3.57;;;11.20;99.90;;;;;;5061494;28;20191;-62
2021/04/12 14:24:49;;;;;;;4.50;4.10;;;11.20;99.90;;;;;;5069194;28;20286;-63
2021/04/12 14:27:24;;;;;;;4.57;4.10;;;11.10;99.90;;;;;;5061651;28;20274;-62
2021/04/12 14:30:05;;;;;;;4.40;4.10;;;11.20;99.90;;;;;;5066661;28;20192;-63
2021/04/12 14:32:37;;;;;;;5.17;3.97;;;11.20;99.90;;;;;;5060776;28;20208;-62
2021/04/12 14:35:08;;;;;;;5.63;3.67;;;11.00;99.90;;;;;;5065622;28;20242;-63
2021/04/12 14:37:38;;;;;;;3.93;3.70;;;10.80;99.90;;;;;;5064580;28;20808;-63
2021/04/12 14:40:11;;;;;;;4.00;3.70;;;10.80;99.90;;;;;;5076147;28;20337;-62
2021/04/12 14:42:47;;;;;;;3.70;3.57;;;10.70;99.90;;;;;;5061135;28;20196;-63
2021/04/12 14:45:20;;;;;;;4.90;4.50;;;10.80;99.90;;;;;;5054223;28;20193;-63